Time;durP1;ratioP1;P1;durP2;ratioP2;P2;SDS_P1;SDS_P2;PMS_P1;PMS_P2;Temp;Humidity;BMP_temperature;BMP_pressure;BME280_temperature;BME280_humidity;BME280_pressure;Samples;Min_cycle;Max_cycle;Signal;HPM_P1;HPM_P2
2024/04/11 00:00:02;;;;;;;;;;;;;;;;;;6827593;26;20004;-92
2024/04/11 00:03:16;;;;;;;;;;;;;;;;;;6829494;26;19948;-90
2024/04/11 00:06:22;;;;;;;;;;;;;;;;;;6795319;26;20019;-90
2024/04/11 00:09:27;;;;;;;;;;;;;;;;;;6799465;26;20139;-91
2024/04/11 00:12:33;;;;;;;;;;;;;;;;;;6829323;26;19924;-92
2024/04/11 00:15:38;;;;;;;;;;;;;;;;;;6824733;26;19924;-92
2024/04/11 00:18:47;;;;;;;;;;;;;;;;;;6798244;26;20121;-91
2024/04/11 00:21:50;;;;;;;;;;;;;;;;;;6826914;26;19923;-92
2024/04/11 00:24:56;;;;;;;;;;;;;;;;;;6797840;26;20008;-91
2024/04/11 00:27:59;;;;;;;;;;;;;;;;;;6828592;26;19924;-91
2024/04/11 00:31:05;;;;;;;;;;;;;;;;;;6799647;26;19931;-92
2024/04/11 00:34:15;;;;;;;;;;;;;;;;;;6797863;26;19928;-92
2024/04/11 00:37:25;;;;;;;;;;;;;;;;;;6827610;26;19924;-91
2024/04/11 00:40:28;;;;;;;;;;;;;;;;;;6796325;26;19924;-92
2024/04/11 00:43:34;;;;;;;;;;;;;;;;;;6826755;26;19924;-93
2024/04/11 00:46:37;;;;;;;;;;;;;;;;;;6796126;26;20005;-91
2024/04/11 00:49:46;;;;;;;;;;;;;;;;;;6796177;26;19924;-91
2024/04/11 00:52:52;;;;;;;;;;;;;;;;;;6799423;26;19933;-92
2024/04/11 00:55:56;;;;;;;;;;;;;;;;;;6801022;26;19924;-90
2024/04/11 00:59:04;;;;;;;;;;;;;;;;;;6797743;26;19996;-91
2024/04/11 01:02:07;;;;;;;;;;;;;;;;;;6797258;26;19924;-91
2024/04/11 01:05:19;;;;;;;;;;;;;;;;;;6811352;26;19925;-93
2024/04/11 01:08:25;;;;;;;;;;;;;;;;;;6813128;26;20024;-92
2024/04/11 01:11:32;;;;;;;;;;;;;;;;;;6785548;26;19931;-92
2024/04/11 01:14:36;;;;;;;;;;;;;;;;;;6788417;26;20139;-92
2024/04/11 01:17:47;;;;;;;;;;;;;;;;;;6782522;26;20000;-93
2024/04/11 01:20:57;;;;;;;;;;;;;;;;;;6782200;26;19928;-92
2024/04/11 01:24:03;;;;;;;;;;;;;;;;;;6788221;26;19925;-92
2024/04/11 01:27:10;;;;;;;;;;;;;;;;;;6739077;26;20128;-92
2024/04/11 01:30:13;;;;;;;;;;;;;;;;;;6740629;26;19925;-92
2024/04/11 01:33:21;;;;;;;;;;;;;;;;;;6773623;26;19925;-92
2024/04/11 01:36:25;;;;;;;;;;;;;;;;;;6738990;26;19925;-91
2024/04/11 01:39:35;;;;;;;;;;;;;;;;;;6738585;26;20008;-90
2024/04/11 01:42:38;;;;;;;;;;;;;;;;;;6768774;26;19932;-90
2024/04/11 01:45:43;;;;;;;;;;;;;;;;;;6736081;26;19932;-91
2024/04/11 01:48:47;;;;;;;;;;;;;;;;;;6736799;26;19930;-90
2024/04/11 01:51:53;;;;;;;;;;;;;;;;;;6741890;26;19929;-91
2024/04/11 01:55:01;;;;;;;;;;;;;;;;;;6742877;26;19925;-91
2024/04/11 01:58:07;;;;;;;;;;;;;;;;;;6768593;26;20126;-91
2024/04/11 02:01:12;;;;;;;;;;;;;;;;;;6739917;26;19925;-91
2024/04/11 02:04:18;;;;;;;;;;;;;;;;;;6765408;26;19935;-90
2024/04/11 02:07:26;;;;;;;;;;;;;;;;;;6783704;26;20136;-92
2024/04/11 02:10:38;;;;;;;;;;;;;;;;;;6814940;26;19924;-90
2024/04/11 02:13:41;;;;;;;;;;;;;;;;;;6813551;26;19932;-92
2024/04/11 02:16:49;;;;;;;;;;;;;;;;;;6784723;26;19986;-91
2024/04/11 02:19:52;;;;;;;;;;;;;;;;;;6814272;26;19924;-92
2024/04/11 02:22:57;;;;;;;;;;;;;;;;;;6787370;26;19924;-91
2024/04/11 02:26:04;;;;;;;;;;;;;;;;;;6829176;26;19924;-91
2024/04/11 02:29:11;;;;;;;;;;;;;;;;;;6828429;26;19952;-91
2024/04/11 02:32:17;;;;;;;;;;;;;;;;;;6799282;26;20117;-91
2024/04/11 02:35:20;;;;;;;;;;;;;;;;;;6800431;26;19924;-90
2024/04/11 02:38:26;;;;;;;;;;;;;;;;;;6801021;26;19924;-91
2024/04/11 02:41:34;;;;;;;;;;;;;;;;;;6801671;26;19924;-91
2024/04/11 02:44:40;;;;;;;;;;;;;;;;;;6796624;26;19930;-91
2024/04/11 02:47:44;;;;;;;;;;;;;;;;;;6831734;26;19940;-91
2024/04/11 02:50:50;;;;;;;;;;;;;;;;;;6835943;26;19931;-90
2024/04/11 02:53:53;;;;;;;;;;;;;;;;;;6798515;26;19924;-91
2024/04/11 02:57:03;;;;;;;;;;;;;;;;;;6826501;26;19923;-91
2024/04/11 03:00:09;;;;;;;;;;;;;;;;;;6796725;26;20033;-91
2024/04/11 03:03:12;;;;;;;;;;;;;;;;;;6771179;26;19925;-91
2024/04/11 03:06:21;;;;;;;;;;;;;;;;;;6797603;25;20018;-91
2024/04/11 03:09:26;;;;;;;;;;;;;;;;;;6798262;25;19924;-92
2024/04/11 03:12:35;;;;;;;;;;;;;;;;;;6799244;26;19952;-92
2024/04/11 03:15:41;;;;;;;;;;;;;;;;;;6789787;26;19927;-90
2024/04/11 03:18:44;;;;;;;;;;;;;;;;;;6801058;26;19958;-91
2024/04/11 03:21:50;;;;;;;;;;;;;;;;;;6802732;26;19935;-91
2024/04/11 03:24:53;;;;;;;;;;;;;;;;;;6858699;26;19924;-92
2024/04/11 03:28:03;;;;;;;;;;;;;;;;;;6799109;26;19928;-92
2024/04/11 03:31:08;;;;;;;;;;;;;;;;;;6797709;26;20014;-93
2024/04/11 03:34:14;;;;;;;;;;;;;;;;;;6806778;26;19924;-91
2024/04/11 03:37:18;;;;;;;;;;;;;;;;;;6798314;26;20121;-91
2024/04/11 03:40:24;;;;;;;;;;;;;;;;;;6797266;26;19931;-91
2024/04/11 03:43:34;;;;;;;;;;;;;;;;;;6798902;26;19995;-93
2024/04/11 03:46:43;;;;;;;;;;;;;;;;;;6797960;26;19924;-92
2024/04/11 03:49:50;;;;;;;;;;;;;;;;;;6798270;25;19986;-91
2024/04/11 03:52:56;;;;;;;;;;;;;;;;;;6859097;25;20200;-91
2024/04/11 03:56:00;;;;;;;;;;;;;;;;;;6800096;25;19931;-91
2024/04/11 03:59:08;;;;;;;;;;;;;;;;;;6799707;26;19931;-92
2024/04/11 04:02:11;;;;;;;;;;;;;;;;;;6860284;26;19931;-91
2024/04/11 04:05:18;;;;;;;;;;;;;;;;;;6796987;26;19931;-90
2024/04/11 04:08:24;;;;;;;;;;;;;;;;;;6798135;26;19943;-93
2024/04/11 04:11:29;;;;;;;;;;;;;;;;;;6798674;26;19953;-92
2024/04/11 04:14:35;;;;;;;;;;;;;;;;;;6797706;26;20077;-92
2024/04/11 04:17:42;;;;;;;;;;;;;;;;;;6859215;26;19924;-90
2024/04/11 04:20:52;;;;;;;;;;;;;;;;;;6803993;26;20030;-90
2024/04/11 04:24:02;;;;;;;;;;;;;;;;;;6867676;26;19920;-89
2024/04/11 04:27:09;;;;;;;;;;;;;;;;;;6831591;26;20121;-94
2024/04/11 04:30:15;;;;;;;;;;;;;;;;;;6796754;26;19954;-93
2024/04/11 04:33:21;;;;;;;;;;;;;;;;;;6798964;26;19995;-92
2024/04/11 04:36:28;;;;;;;;;;;;;;;;;;6858882;26;20010;-91
2024/04/11 04:39:41;;;;;;;;;;;;;;;;;;6829976;26;19920;-91
2024/04/11 04:42:49;;;;;;;;;;;;;;;;;;6830759;26;19924;-91
2024/04/11 04:46:09;;;;;;;;;;;;;;;;;;6800247;26;19931;-92
2024/04/11 04:49:17;;;;;;;;;;;;;;;;;;6862996;26;19923;-91
2024/04/11 04:52:24;;;;;;;;;;;;;;;;;;6801638;26;19924;-92
2024/04/11 04:55:31;;;;;;;;;;;;;;;;;;6862338;26;19923;-91
2024/04/11 04:58:40;;;;;;;;;;;;;;;;;;6861126;26;19948;-92
2024/04/11 05:02:09;;;;;;;;;;;;;;;;;;6735583;26;20158;-92
2024/04/11 05:05:15;;;;;;;;;;;;;;;;;;6800185;26;19924;-91
2024/04/11 05:08:34;;;;;;;;;;;;;;;;;;6790476;26;19955;-92
2024/04/11 05:11:53;;;;;;;;;;;;;;;;;;6757479;26;19932;-91
2024/04/11 05:14:56;;;;;;;;;;;;;;;;;;6766860;26;19925;-91
2024/04/11 05:18:06;;;;;;;;;;;;;;;;;;6738970;26;19925;-91
2024/04/11 05:21:12;;;;;;;;;;;;;;;;;;6736992;26;19925;-93
2024/04/11 05:24:18;;;;;;;;;;;;;;;;;;6775968;26;19935;-92
2024/04/11 05:27:21;;;;;;;;;;;;;;;;;;6801140;26;20129;-90
2024/04/11 05:30:27;;;;;;;;;;;;;;;;;;6800806;26;20021;-92
2024/04/11 05:33:36;;;;;;;;;;;;;;;;;;6802809;26;19924;-91
2024/04/11 05:36:44;;;;;;;;;;;;;;;;;;6809608;26;19951;-91
2024/04/11 05:39:57;;;;;;;;;;;;;;;;;;6861743;26;19948;-93
2024/04/11 05:43:02;;;;;;;;;;;;;;;;;;6801937;26;19924;-92
2024/04/11 05:46:08;;;;;;;;;;;;;;;;;;6791926;26;19928;-92
2024/04/11 05:49:32;;;;;;;;;;;;;;;;;;6802721;26;20013;-92
2024/04/11 05:52:43;;;;;;;;;;;;;;;;;;6804273;26;19931;-94
2024/04/11 05:59:21;;;;;;;;;;;;;;;;;;6769980;21;19930;-60
2024/04/11 06:02:23;;;;;;;;;;;;;;;;;;6651535;26;20693;-60
2024/04/11 06:05:29;;;;;;;;;;;;;;;;;;6650865;26;19937;-61
2024/04/11 06:08:37;;;;;;;;;;;;;;;;;;6650840;26;19926;-60
2024/04/11 06:11:40;;;;;;;;;;;;;;;;;;6650590;26;19926;-60
2024/04/11 06:14:45;;;;;;;;;;;;;;;;;;6650541;26;19994;-61
2024/04/11 06:17:48;;;;;;;;;;;;;;;;;;6651207;26;19934;-61
2024/04/11 06:20:53;;;;;;;;;;;;;;;;;;6650672;26;20085;-61
2024/04/11 06:24:01;;;;;;;;;;;;;;;;;;6649729;26;19933;-60
2024/04/11 06:27:12;;;;;;;;;;;;;;;;;;6651017;26;20234;-60
2024/04/11 06:30:19;;;;;;;;;;;;;;;;;;6649765;26;19926;-60
2024/04/11 06:33:26;;;;;;;;;;;;;;;;;;6650771;26;20122;-60
2024/04/11 06:36:32;;;;;;;;;;;;;;;;;;6649313;26;19925;-60
2024/04/11 06:39:40;;;;;;;;;;;;;;;;;;6649848;26;19926;-61
2024/04/11 06:42:47;;;;;;;;;;;;;;;;;;6651034;26;19925;-61
2024/04/11 06:45:49;;;;;;;;;;;;;;;;;;6650214;26;19933;-61
2024/04/11 06:48:57;;;;;;;;;;;;;;;;;;6649400;26;19926;-61
2024/04/11 06:52:00;;;;;;;;;;;;;;;;;;6650888;26;20017;-61
2024/04/11 06:55:08;;;;;;;;;;;;;;;;;;6650028;26;19926;-59
2024/04/11 06:58:11;;;;;;;;;;;;;;;;;;6650220;26;20036;-61
2024/04/11 07:01:16;;;;;;;;;;;;;;;;;;6687975;26;20195;-61
2024/04/11 07:04:19;;;;;;;;;;;;;;;;;;6693122;26;19926;-61
2024/04/11 07:07:27;;;;;;;;;;;;;;;;;;6663862;26;19952;-60
2024/04/11 07:10:36;;;;;;;;;;;;;;;;;;6693316;26;20005;-61
2024/04/11 07:13:39;;;;;;;;;;;;;;;;;;6650355;26;19933;-60
2024/04/11 07:16:44;;;;;;;;;;;;;;;;;;6649200;26;19959;-61
2024/04/11 07:19:50;;;;;;;;;;;;;;;;;;6649493;26;19927;-60
2024/04/11 07:22:54;;;;;;;;;;;;;;;;;;6652622;26;19926;-60
2024/04/11 07:26:07;;;;;;;;;;;;;;;;;;6692844;26;19932;-60
2024/04/11 07:29:10;;;;;;;;;;;;;;;;;;6691834;26;20364;-61
2024/04/11 07:32:18;;;;;;;;;;;;;;;;;;6692600;26;19933;-61
2024/04/11 07:35:26;;;;;;;;;;;;;;;;;;6692771;26;19933;-61
2024/04/11 07:38:34;;;;;;;;;;;;;;;;;;6693247;26;19925;-61
2024/04/11 07:41:44;;;;;;;;;;;;;;;;;;6692189;26;19926;-61
2024/04/11 07:44:51;;;;;;;;;;;;;;;;;;6692020;26;20121;-61
2024/04/11 07:47:58;;;;;;;;;;;;;;;;;;6690989;26;19926;-60
2024/04/11 07:51:10;;;;;;;;;;;;;;;;;;6691892;26;19974;-61
2024/04/11 07:54:13;;;;;;;;;;;;;;;;;;6691715;26;19933;-61
2024/04/11 07:57:33;;;;;;;;;;;;;;;;;;6691535;26;19932;-61
2024/04/11 08:00:39;;;;;;;;;;;;;;;;;;6691308;26;19925;-60
2024/04/11 08:03:45;;;;;;;;;;;;;;;;;;6692455;26;19926;-61
2024/04/11 08:06:50;;;;;;;;;;;;;;;;;;6691512;26;19926;-60
2024/04/11 08:09:58;;;;;;;;;;;;;;;;;;6691565;26;19925;-61
2024/04/11 08:13:08;;;;;;;;;;;;;;;;;;6656157;26;19934;-62
2024/04/11 08:16:13;;;;;;;;;;;;;;;;;;6647463;26;19933;-62
2024/04/11 08:19:17;;;;;;;;;;;;;;;;;;6648449;26;20180;-62
2024/04/11 08:22:23;;;;;;;;;;;;;;;;;;6619278;26;19926;-61
2024/04/11 08:25:25;;;;;;;;;;;;;;;;;;6688236;26;19926;-61
2024/04/11 08:28:37;;;;;;;;;;;;;;;;;;6691813;26;19933;-60
2024/04/11 08:31:40;;;;;;;;;;;;;;;;;;6691462;26;19925;-61
2024/04/11 08:34:46;;;;;;;;;;;;;;;;;;6691521;26;20192;-60
2024/04/11 08:37:51;;;;;;;;;;;;;;;;;;6691647;26;19932;-60
2024/04/11 08:40:57;;;;;;;;;;;;;;;;;;6691770;26;20008;-60
2024/04/11 08:44:07;;;;;;;;;;;;;;;;;;6691118;26;19925;-60
2024/04/11 08:47:10;;;;;;;;;;;;;;;;;;6691797;26;19932;-61
2024/04/11 08:50:15;;;;;;;;;;;;;;;;;;6690963;26;19949;-61
2024/04/11 08:53:18;;;;;;;;;;;;;;;;;;6691478;26;20190;-60
2024/04/11 08:56:25;;;;;;;;;;;;;;;;;;6691054;26;19925;-61
2024/04/11 08:59:30;;;;;;;;;;;;;;;;;;6690239;26;20119;-61
2024/04/11 09:02:37;;;;;;;;;;;;;;;;;;6691790;26;19932;-60
2024/04/11 09:05:40;;;;;;;;;;;;;;;;;;6690948;26;19933;-60
2024/04/11 09:08:45;;;;;;;;;;;;;;;;;;6691324;26;19933;-60
2024/04/11 09:11:49;;;;;;;;;;;;;;;;;;6671198;26;19926;-60
2024/04/11 09:14:57;;;;;;;;;;;;;;;;;;6647008;26;19934;-61
2024/04/11 09:17:59;;;;;;;;;;;;;;;;;;6647812;26;19926;-61
2024/04/11 09:21:06;;;;;;;;;;;;;;;;;;6647080;26;20077;-61
2024/04/11 09:24:16;;;;;;;;;;;;;;;;;;6668263;26;19926;-62
2024/04/11 09:27:22;;;;;;;;;;;;;;;;;;6691171;26;19926;-60
2024/04/11 09:30:30;;;;;;;;;;;;;;;;;;6690694;26;20229;-60
2024/04/11 09:33:35;;;;;;;;;;;;;;;;;;6690434;26;19926;-60
2024/04/11 09:36:41;;;;;;;;;;;;;;;;;;6690201;26;19925;-60
2024/04/11 09:39:49;;;;;;;;;;;;;;;;;;6689747;26;20249;-60
2024/04/11 09:43:17;;;;;;;;;;;;;;;;;;6690874;26;19932;-60
2024/04/11 09:46:25;;;;;;;;;;;;;;;;;;6689467;26;19925;-60
2024/04/11 09:49:30;;;;;;;;;;;;;;;;;;6690416;26;19946;-60
2024/04/11 09:52:37;;;;;;;;;;;;;;;;;;6659373;26;20119;-60
2024/04/11 09:55:40;;;;;;;;;;;;;;;;;;6690013;26;19926;-62
2024/04/11 09:58:46;;;;;;;;;;;;;;;;;;6689853;26;19925;-61
2024/04/11 10:01:53;;;;;;;;;;;;;;;;;;6689534;26;19926;-61
2024/04/11 10:04:59;;;;;;;;;;;;;;;;;;6689270;26;19933;-61
2024/04/11 10:08:01;;;;;;;;;;;;;;;;;;6690085;26;19932;-61
2024/04/11 10:11:10;;;;;;;;;;;;;;;;;;6690790;26;19926;-61
2024/04/11 10:14:20;;;;;;;;;;;;;;;;;;6694092;26;19932;-61
2024/04/11 10:17:32;;;;;;;;;;;;;;;;;;6694806;26;19925;-61
2024/04/11 10:20:43;;;;;;;;;;;;;;;;;;6695509;26;19933;-61
2024/04/11 10:23:51;;;;;;;;;;;;;;;;;;6659723;26;19926;-60
2024/04/11 10:27:03;;;;;;;;;;;;;;;;;;6694453;26;19933;-61
2024/04/11 10:30:12;;;;;;;;;;;;;;;;;;6694013;26;19936;-62
2024/04/11 10:33:17;;;;;;;;;;;;;;;;;;6693800;26;19933;-60
2024/04/11 10:36:25;;;;;;;;;;;;;;;;;;6693249;26;21097;-60
2024/04/11 10:39:29;;;;;;;;;;;;;;;;;;6692888;26;19955;-60
2024/04/11 10:42:43;;;;;;;;;;;;;;;;;;6695578;26;19933;-62
2024/04/11 10:45:56;;;;;;;;;;;;;;;;;;6693387;26;20218;-60
2024/04/11 10:49:12;;;;;;;;;;;;;;;;;;6692913;26;19926;-60
2024/04/11 10:52:16;;;;;;;;;;;;;;;;;;6692846;26;20664;-60
2024/04/11 10:55:28;;;;;;;;;;;;;;;;;;6693016;26;19926;-61
2024/04/11 10:58:32;;;;;;;;;;;;;;;;;;6693137;26;19926;-60
2024/04/11 11:01:37;;;;;;;;;;;;;;;;;;6693355;26;20009;-61
2024/04/11 11:04:54;;;;;;;;;;;;;;;;;;6682593;26;19930;-61
2024/04/11 11:07:57;;;;;;;;;;;;;;;;;;6693165;26;19926;-61
2024/04/11 11:11:05;;;;;;;;;;;;;;;;;;6693025;26;20022;-61
2024/04/11 11:14:08;;;;;;;;;;;;;;;;;;6693351;26;20012;-60
2024/04/11 11:17:17;;;;;;;;;;;;;;;;;;6693318;26;20126;-60
2024/04/11 11:20:26;;;;;;;;;;;;;;;;;;6692553;26;19925;-60
2024/04/11 11:23:33;;;;;;;;;;;;;;;;;;6689439;26;19925;-60
2024/04/11 11:26:43;;;;;;;;;;;;;;;;;;6692122;26;19926;-60
2024/04/11 11:29:48;;;;;;;;;;;;;;;;;;6692714;26;19932;-60
2024/04/11 11:32:56;;;;;;;;;;;;;;;;;;6693666;26;19926;-60
2024/04/11 11:36:05;;;;;;;;;;;;;;;;;;6691562;26;19930;-60
2024/04/11 11:39:17;;;;;;;;;;;;;;;;;;6692854;26;19925;-60
2024/04/11 11:42:26;;;;;;;;;;;;;;;;;;6693144;26;19925;-61
2024/04/11 11:45:29;;;;;;;;;;;;;;;;;;6692560;26;20145;-61
2024/04/11 11:48:35;;;;;;;;;;;;;;;;;;6693286;26;19925;-60
2024/04/11 11:51:43;;;;;;;;;;;;;;;;;;6691828;26;20087;-61
2024/04/11 11:54:50;;;;;;;;;;;;;;;;;;6690727;26;19925;-61
2024/04/11 11:58:02;;;;;;;;;;;;;;;;;;6689529;26;19929;-60
2024/04/11 12:01:19;;;;;;;;;;;;;;;;;;6688767;26;19933;-60
2024/04/11 12:04:30;;;;;;;;;;;;;;;;;;6691235;26;19926;-59
2024/04/11 12:07:36;;;;;;;;;;;;;;;;;;6691803;26;20009;-61
2024/04/11 12:14:02;;;;;;;;;;;;;;;;;;6692158;26;19925;-61
2024/04/11 12:17:10;;;;;;;;;;;;;;;;;;6693199;26;19929;-61
2024/04/11 12:20:15;;;;;;;;;;;;;;;;;;6690686;26;19926;-62
2024/04/11 12:23:23;;;;;;;;;;;;;;;;;;6689908;26;19926;-61
2024/04/11 12:26:32;;;;;;;;;;;;;;;;;;6691544;26;19926;-61
2024/04/11 12:29:39;;;;;;;;;;;;;;;;;;6691073;26;19926;-61
2024/04/11 12:32:45;;;;;;;;;;;;;;;;;;6675757;26;19926;-61
2024/04/11 12:35:55;;;;;;;;;;;;;;;;;;6647221;26;19926;-61
2024/04/11 12:39:12;;;;;;;;;;;;;;;;;;6648302;26;19930;-61
2024/04/11 12:42:22;;;;;;;;;;;;;;;;;;6648954;26;20105;-61
2024/04/11 12:45:31;;;;;;;;;;;;;;;;;;6648016;26;20116;-61
2024/04/11 12:48:38;;;;;;;;;;;;;;;;;;6648663;26;19926;-61
2024/04/11 12:51:41;;;;;;;;;;;;;;;;;;6648160;26;19934;-61
2024/04/11 12:54:48;;;;;;;;;;;;;;;;;;6648439;26;20023;-61
2024/04/11 12:57:51;;;;;;;;;;;;;;;;;;6648261;26;19926;-61
2024/04/11 13:01:03;;;;;;;;;;;;;;;;;;6648086;26;19926;-61
2024/04/11 13:04:08;;;;;;;;;;;;;;;;;;6648182;26;19926;-61
2024/04/11 13:07:13;;;;;;;;;;;;;;;;;;6647952;26;20027;-62
2024/04/11 13:10:19;;;;;;;;;;;;;;;;;;6645454;26;19926;-61
2024/04/11 13:13:29;;;;;;;;;;;;;;;;;;6688881;26;19932;-61
2024/04/11 13:16:32;;;;;;;;;;;;;;;;;;6690606;26;19926;-61
2024/04/11 13:19:39;;;;;;;;;;;;;;;;;;6690728;26;20084;-61
2024/04/11 13:22:48;;;;;;;;;;;;;;;;;;6690747;26;20103;-61
2024/04/11 13:25:57;;;;;;;;;;;;;;;;;;6689328;26;19925;-61
2024/04/11 13:29:07;;;;;;;;;;;;;;;;;;6690535;26;19949;-61
2024/04/11 13:32:11;;;;;;;;;;;;;;;;;;6690639;26;19926;-60
2024/04/11 13:35:36;;;;;;;;;;;;;;;;;;6690583;26;20137;-60
2024/04/11 13:38:49;;;;;;;;;;;;;;;;;;6690939;26;19933;-60
2024/04/11 13:41:55;;;;;;;;;;;;;;;;;;6689656;26;19933;-60
2024/04/11 13:45:00;;;;;;;;;;;;;;;;;;6691025;26;19936;-61
2024/04/11 13:48:06;;;;;;;;;;;;;;;;;;6690692;26;19937;-61
2024/04/11 13:51:09;;;;;;;;;;;;;;;;;;6664777;26;20126;-62
2024/04/11 13:54:19;;;;;;;;;;;;;;;;;;6690732;26;19932;-61
2024/04/11 13:57:32;;;;;;;;;;;;;;;;;;6664862;26;19933;-62
2024/04/11 14:00:36;;;;;;;;;;;;;;;;;;6694306;26;19938;-61
2024/04/11 14:03:45;;;;;;;;;;;;;;;;;;6695223;26;19925;-61
2024/04/11 14:06:57;;;;;;;;;;;;;;;;;;6694836;26;19933;-60
2024/04/11 14:10:04;;;;;;;;;;;;;;;;;;6693960;26;19925;-60
2024/04/11 14:13:15;;;;;;;;;;;;;;;;;;6694967;26;19930;-61
2024/04/11 14:16:18;;;;;;;;;;;;;;;;;;6693803;26;19925;-61
2024/04/11 14:22:47;;;;;;;;;;;;;;;;;;6692962;26;19965;-62
2024/04/11 14:26:04;;;;;;;;;;;;;;;;;;6664644;26;19933;-60
2024/04/11 14:29:16;;;;;;;;;;;;;;;;;;6694430;26;20012;-60
2024/04/11 14:32:29;;;;;;;;;;;;;;;;;;6693468;26;19926;-61
2024/04/11 14:38:55;;;;;;;;;;;;;;;;;;6693231;26;20009;-61
2024/04/11 14:41:58;;;;;;;;;;;;;;;;;;6693959;26;20156;-60
2024/04/11 14:45:07;;;;;;;;;;;;;;;;;;6692756;26;19928;-63
2024/04/11 14:48:18;;;;;;;;;;;;;;;;;;6693200;26;19932;-60
2024/04/11 14:51:26;;;;;;;;;;;;;;;;;;6692650;26;20099;-60
2024/04/11 14:54:29;;;;;;;;;;;;;;;;;;6693109;26;20125;-60
2024/04/11 14:57:37;;;;;;;;;;;;;;;;;;6693269;26;20102;-59
2024/04/11 15:00:46;;;;;;;;;;;;;;;;;;6693112;26;19936;-60
2024/04/11 15:03:57;;;;;;;;;;;;;;;;;;6693986;26;19925;-62
2024/04/11 15:07:02;;;;;;;;;;;;;;;;;;6663197;26;19932;-62
2024/04/11 15:10:16;;;;;;;;;;;;;;;;;;6692743;26;20138;-60
2024/04/11 15:13:20;;;;;;;;;;;;;;;;;;6692777;26;20015;-60
2024/04/11 15:19:46;;;;;;;;;;;;;;;;;;6692932;26;19933;-61
2024/04/11 15:22:51;;;;;;;;;;;;;;;;;;6692830;26;19962;-61
2024/04/11 15:25:56;;;;;;;;;;;;;;;;;;6690942;26;19932;-61
2024/04/11 15:29:01;;;;;;;;;;;;;;;;;;6692648;26;20123;-61
2024/04/11 15:32:16;;;;;;;;;;;;;;;;;;6690969;26;19932;-60
2024/04/11 15:35:21;;;;;;;;;;;;;;;;;;6690737;26;19933;-61
2024/04/11 15:38:28;;;;;;;;;;;;;;;;;;6692991;26;19997;-60
2024/04/11 15:41:39;;;;;;;;;;;;;;;;;;6691855;26;19926;-60
2024/04/11 15:44:46;;;;;;;;;;;;;;;;;;6692304;26;20061;-61
2024/04/11 15:47:52;;;;;;;;;;;;;;;;;;6692900;26;19933;-61
2024/04/11 15:50:58;;;;;;;;;;;;;;;;;;6692137;26;19926;-60
2024/04/11 15:54:01;;;;;;;;;;;;;;;;;;6691888;26;19926;-61
2024/04/11 15:57:07;;;;;;;;;;;;;;;;;;6692753;26;19937;-60
2024/04/11 16:00:11;;;;;;;;;;;;;;;;;;6692466;26;19926;-60
2024/04/11 16:03:20;;;;;;;;;;;;;;;;;;6692497;26;19925;-61
2024/04/11 16:06:25;;;;;;;;;;;;;;;;;;6687989;26;20030;-61
2024/04/11 16:09:38;;;;;;;;;;;;;;;;;;6690675;26;20147;-61
2024/04/11 16:12:41;;;;;;;;;;;;;;;;;;6692519;26;19968;-61
2024/04/11 16:15:47;;;;;;;;;;;;;;;;;;6692085;26;19925;-62
2024/04/11 16:18:52;;;;;;;;;;;;;;;;;;6693228;26;19956;-60
2024/04/11 16:22:10;;;;;;;;;;;;;;;;;;6691478;26;19936;-60
2024/04/11 16:25:19;;;;;;;;;;;;;;;;;;6690595;26;19925;-60
2024/04/11 16:28:28;;;;;;;;;;;;;;;;;;6692157;26;19930;-62
2024/04/11 16:31:38;;;;;;;;;;;;;;;;;;6691660;26;19925;-61
2024/04/11 16:34:48;;;;;;;;;;;;;;;;;;6691164;26;20046;-61
2024/04/11 16:38:07;;;;;;;;;;;;;;;;;;6692082;26;19925;-61
2024/04/11 16:41:12;;;;;;;;;;;;;;;;;;6690841;26;19979;-61
2024/04/11 16:44:23;;;;;;;;;;;;;;;;;;6690841;26;19933;-60
2024/04/11 16:47:31;;;;;;;;;;;;;;;;;;6661091;26;19933;-60
2024/04/11 16:50:45;;;;;;;;;;;;;;;;;;6685298;26;20106;-61
2024/04/11 16:54:11;;;;;;;;;;;;;;;;;;6692160;26;19925;-60
2024/04/11 16:57:14;;;;;;;;;;;;;;;;;;6688961;26;19925;-60
2024/04/11 17:00:26;;;;;;;;;;;;;;;;;;6691234;26;19925;-59
2024/04/11 17:03:33;;;;;;;;;;;;;;;;;;6692397;26;19949;-62
2024/04/11 17:06:39;;;;;;;;;;;;;;;;;;6691402;26;19965;-60
2024/04/11 17:09:46;;;;;;;;;;;;;;;;;;6690825;26;19925;-61
2024/04/11 17:12:50;;;;;;;;;;;;;;;;;;6691327;26;19949;-59
2024/04/11 17:16:14;;;;;;;;;;;;;;;;;;6691207;26;19949;-61
2024/04/11 17:19:31;;;;;;;;;;;;;;;;;;6690815;26;19926;-61
2024/04/11 17:22:50;;;;;;;;;;;;;;;;;;6695625;26;19926;-60
2024/04/11 17:25:58;;;;;;;;;;;;;;;;;;6651957;26;19930;-60
2024/04/11 17:29:02;;;;;;;;;;;;;;;;;;6651093;26;19990;-61
2024/04/11 17:32:12;;;;;;;;;;;;;;;;;;6651728;26;20002;-61
2024/04/11 17:35:18;;;;;;;;;;;;;;;;;;6650421;26;19933;-61
2024/04/11 17:38:47;;;;;;;;;;;;;;;;;;6652188;26;19933;-61
2024/04/11 17:42:12;;;;;;;;;;;;;;;;;;6651239;26;19926;-62
2024/04/11 17:45:25;;;;;;;;;;;;;;;;;;6651212;26;20123;-61
2024/04/11 17:48:40;;;;;;;;;;;;;;;;;;6649662;26;20191;-61
2024/04/11 17:51:48;;;;;;;;;;;;;;;;;;6650677;26;19933;-61
2024/04/11 17:54:56;;;;;;;;;;;;;;;;;;6650312;26;20923;-62
2024/04/11 17:58:08;;;;;;;;;;;;;;;;;;6650011;26;19933;-61
2024/04/11 18:01:17;;;;;;;;;;;;;;;;;;6651123;26;19926;-60
2024/04/11 18:04:22;;;;;;;;;;;;;;;;;;6651716;26;20115;-61
2024/04/11 18:07:32;;;;;;;;;;;;;;;;;;6652158;26;19938;-60
2024/04/11 18:10:45;;;;;;;;;;;;;;;;;;6652148;26;20017;-62
2024/04/11 18:13:49;;;;;;;;;;;;;;;;;;6695251;26;19933;-60
2024/04/11 18:16:58;;;;;;;;;;;;;;;;;;6693927;26;19926;-61
2024/04/11 18:20:10;;;;;;;;;;;;;;;;;;6694696;26;19926;-61
2024/04/11 18:23:17;;;;;;;;;;;;;;;;;;6695013;26;19932;-61
2024/04/11 18:26:26;;;;;;;;;;;;;;;;;;6694327;26;19926;-60
2024/04/11 18:29:31;;;;;;;;;;;;;;;;;;6694493;26;19925;-60
2024/04/11 18:32:40;;;;;;;;;;;;;;;;;;6694768;26;19956;-63
2024/04/11 18:35:43;;;;;;;;;;;;;;;;;;6692948;26;19925;-61
2024/04/11 18:38:51;;;;;;;;;;;;;;;;;;6694692;26;19932;-61
2024/04/11 18:41:57;;;;;;;;;;;;;;;;;;6692442;26;19932;-61
2024/04/11 18:45:17;;;;;;;;;;;;;;;;;;6665196;26;19925;-60
2024/04/11 18:48:37;;;;;;;;;;;;;;;;;;6688703;26;19926;-61
2024/04/11 18:51:46;;;;;;;;;;;;;;;;;;6693289;26;19932;-62
2024/04/11 18:54:53;;;;;;;;;;;;;;;;;;6693939;26;20462;-60
2024/04/11 18:58:01;;;;;;;;;;;;;;;;;;6684732;26;19926;-60
2024/04/11 19:01:04;;;;;;;;;;;;;;;;;;6694622;26;20131;-60
2024/04/11 19:04:15;;;;;;;;;;;;;;;;;;6654485;26;19925;-60
2024/04/11 19:07:20;;;;;;;;;;;;;;;;;;6694826;26;19933;-61
2024/04/11 19:10:26;;;;;;;;;;;;;;;;;;6694264;26;19933;-62
2024/04/11 19:13:37;;;;;;;;;;;;;;;;;;6691285;26;19925;-61
2024/04/11 19:16:50;;;;;;;;;;;;;;;;;;6688748;26;19925;-60
2024/04/11 19:20:00;;;;;;;;;;;;;;;;;;6693027;26;19925;-61
2024/04/11 19:23:06;;;;;;;;;;;;;;;;;;6694844;26;19925;-61
2024/04/11 19:26:15;;;;;;;;;;;;;;;;;;6693815;26;19925;-61
2024/04/11 19:29:24;;;;;;;;;;;;;;;;;;6694164;26;19925;-61
2024/04/11 19:32:44;;;;;;;;;;;;;;;;;;6693502;26;20123;-60
2024/04/11 19:35:50;;;;;;;;;;;;;;;;;;6693066;26;19933;-61
2024/04/11 19:38:55;;;;;;;;;;;;;;;;;;6693663;26;20055;-61
2024/04/11 19:42:03;;;;;;;;;;;;;;;;;;6694309;26;19932;-62
2024/04/11 19:45:12;;;;;;;;;;;;;;;;;;6693694;26;19932;-61
2024/04/11 19:48:28;;;;;;;;;;;;;;;;;;6693291;26;19960;-60
2024/04/11 19:51:35;;;;;;;;;;;;;;;;;;6692028;26;19925;-62
2024/04/11 19:54:46;;;;;;;;;;;;;;;;;;6692803;26;19925;-60
2024/04/11 19:58:00;;;;;;;;;;;;;;;;;;6693823;26;20022;-60
2024/04/11 20:01:09;;;;;;;;;;;;;;;;;;6692574;26;19933;-59
2024/04/11 20:04:19;;;;;;;;;;;;;;;;;;6661645;26;20115;-62
2024/04/11 20:07:27;;;;;;;;;;;;;;;;;;6691436;26;19932;-60
2024/04/11 20:10:37;;;;;;;;;;;;;;;;;;6692878;26;20168;-60
2024/04/11 20:20:33;;;;;;;;;;;;;;;;;;6675983;26;20023;-62
2024/04/11 20:23:40;;;;;;;;;;;;;;;;;;6692476;26;19925;-60
2024/04/11 20:26:43;;;;;;;;;;;;;;;;;;6691527;26;20019;-61
2024/04/11 20:29:54;;;;;;;;;;;;;;;;;;6661800;26;19930;-61
2024/04/11 20:33:07;;;;;;;;;;;;;;;;;;6692712;26;19930;-61
2024/04/11 20:36:11;;;;;;;;;;;;;;;;;;6691228;26;19936;-61
2024/04/11 20:39:24;;;;;;;;;;;;;;;;;;6691954;26;19949;-61
2024/04/11 20:42:51;;;;;;;;;;;;;;;;;;6692540;26;19932;-61
2024/04/11 20:45:57;;;;;;;;;;;;;;;;;;6681757;26;19926;-61
2024/04/11 20:49:24;;;;;;;;;;;;;;;;;;6689910;26;20188;-60
2024/04/11 21:36:16;;;;;;;;;;;;;;;;;;6690754;26;19933;-60
2024/04/11 21:39:29;;;;;;;;;;;;;;;;;;6690712;26;19933;-60
2024/04/11 21:42:37;;;;;;;;;;;;;;;;;;6691155;26;19925;-60
2024/04/11 21:45:43;;;;;;;;;;;;;;;;;;6690466;26;19925;-61
2024/04/11 21:48:46;;;;;;;;;;;;;;;;;;6691370;26;19927;-60
2024/04/11 21:51:57;;;;;;;;;;;;;;;;;;6691246;26;19932;-61
2024/04/11 21:55:11;;;;;;;;;;;;;;;;;;6660219;26;19932;-60
2024/04/11 21:58:18;;;;;;;;;;;;;;;;;;6690731;26;19933;-60
2024/04/11 22:01:23;;;;;;;;;;;;;;;;;;6689881;26;19926;-60
2024/04/11 22:04:34;;;;;;;;;;;;;;;;;;6690010;26;19930;-59
2024/04/11 22:07:40;;;;;;;;;;;;;;;;;;6681669;26;19933;-59
2024/04/11 22:10:46;;;;;;;;;;;;;;;;;;6694778;26;19925;-61
2024/04/11 22:13:53;;;;;;;;;;;;;;;;;;6694865;26;19932;-61
2024/04/11 22:16:56;;;;;;;;;;;;;;;;;;6694592;26;19925;-61
2024/04/11 22:20:06;;;;;;;;;;;;;;;;;;6683109;26;20162;-61
2024/04/11 22:23:11;;;;;;;;;;;;;;;;;;6694534;26;19932;-60
2024/04/11 22:26:21;;;;;;;;;;;;;;;;;;6694132;26;19932;-60
2024/04/11 22:29:23;;;;;;;;;;;;;;;;;;6663439;26;19926;-60